createdAt,value
2023-03-16T00:02:10.216Z,-3.12
2023-03-16T00:04:38.084Z,-3.49
2023-03-16T00:07:11.182Z,-3.28
2023-03-16T00:09:41.364Z,-3.78
2023-03-16T00:12:19.098Z,-2.78
2023-03-16T00:14:48.423Z,-2.56
2023-03-16T00:17:21.285Z,-2.87
2023-03-16T00:19:55.599Z,-3.43
2023-03-16T00:22:29.973Z,-3.56
2023-03-16T00:24:57.382Z,-3.47
2023-03-16T00:27:26.478Z,-3.22
2023-03-16T00:29:57.214Z,-4.55
2023-03-16T00:32:24.047Z,-3.78
2023-03-16T00:34:51.653Z,-3.94
2023-03-16T00:37:19.772Z,-2.81
2023-03-16T00:39:47.201Z,-2.23
2023-03-16T00:42:16.097Z,-2.64
2023-03-16T00:44:43.495Z,-2.46
2023-03-16T00:47:15.620Z,-3.24
2023-03-16T00:49:44.200Z,-3.93
2023-03-16T00:52:14.813Z,-3.98
2023-03-16T00:54:43.342Z,-2.96
2023-03-16T00:57:13.786Z,-3.17
2023-03-16T00:59:42.357Z,-3.11
2023-03-16T01:02:10.594Z,-3.55
2023-03-16T01:04:37.651Z,-3.30
2023-03-16T01:07:05.022Z,-2.82
2023-03-16T01:09:36.887Z,-2.79
2023-03-16T01:12:06.288Z,-3.09
2023-03-16T01:14:36.151Z,-2.96
2023-03-16T01:17:06.294Z,-3.06
2023-03-16T01:19:34.173Z,-2.22
2023-03-16T01:22:08.615Z,-2.57
2023-03-16T01:24:36.440Z,-3.06
2023-03-16T01:27:05.073Z,-3.35
2023-03-16T01:29:33.156Z,-2.78
2023-03-16T01:32:00.713Z,-2.52
2023-03-16T01:34:28.095Z,-2.35
2023-03-16T01:36:56.100Z,-2.29
2023-03-16T01:39:30.399Z,-3.13
2023-03-16T01:41:57.709Z,-3.69
2023-03-16T01:44:30.705Z,-2.97
2023-03-16T01:47:01.651Z,-3.30
2023-03-16T01:49:38.063Z,-3.14
2023-03-16T01:52:19.212Z,-2.04
2023-03-16T01:54:49.902Z,-2.01
2023-03-16T01:57:21.982Z,-2.13
2023-03-16T01:59:52.222Z,-2.25
2023-03-16T02:02:22.634Z,-3.02
2023-03-16T02:05:02.626Z,-2.97
2023-03-16T02:07:34.732Z,-4.16
2023-03-16T02:10:04.465Z,-4.35
2023-03-16T02:12:31.280Z,-3.84
2023-03-16T02:15:00.510Z,-3.89
2023-03-16T02:17:29.593Z,-3.97
2023-03-16T02:20:24.920Z,-5.12
2023-03-16T02:22:54.384Z,-3.92
2023-03-16T02:25:45.652Z,-2.90
2023-03-16T02:28:22.575Z,-2.98
2023-03-16T02:30:50.226Z,-3.93
2023-03-16T02:33:18.636Z,-4.23
2023-03-16T02:35:45.426Z,-4.88
2023-03-16T02:38:12.883Z,-4.91
2023-03-16T02:40:58.224Z,-3.96
2023-03-16T02:43:33.365Z,-4.17
2023-03-16T02:46:19.505Z,-3.96
2023-03-16T02:48:55.472Z,-4.10
2023-03-16T02:51:22.177Z,-4.37
2023-03-16T02:53:49.021Z,-5.31
2023-03-16T02:56:15.883Z,-4.25
2023-03-16T02:58:43.062Z,-4.30
2023-03-16T03:01:14.580Z,-6.34
2023-03-16T03:03:41.976Z,-4.84
2023-03-16T03:06:08.740Z,-4.53
2023-03-16T03:08:37.046Z,-4.45
2023-03-16T03:11:03.860Z,-4.44
2023-03-16T03:13:31.703Z,-4.81
2023-03-16T03:15:58.757Z,-4.29
2023-03-16T03:18:28.172Z,-4.05
2023-03-16T03:20:54.910Z,-4.24
2023-03-16T03:23:22.074Z,-4.61
2023-03-16T03:25:48.802Z,-4.90
2023-03-16T03:28:17.242Z,-5.49
2023-03-16T03:30:44.827Z,-5.41
2023-03-16T03:33:13.131Z,-5.29
2023-03-16T03:35:39.948Z,-5.66
2023-03-16T03:38:08.221Z,-5.88
2023-03-16T03:40:35.463Z,-5.86
2023-03-16T03:43:05.212Z,-5.10
2023-03-16T03:45:36.184Z,-5.07
2023-03-16T03:48:02.994Z,-4.83
2023-03-16T03:50:30.019Z,-5.03
2023-03-16T03:53:21.241Z,-4.97
2023-03-16T03:56:23.144Z,-6.01
2023-03-16T03:58:50.214Z,-6.33
2023-03-16T04:01:27.570Z,-5.94
2023-03-16T04:03:54.481Z,-5.38
2023-03-16T04:06:21.554Z,-5.51
2023-03-16T04:08:48.379Z,-5.54
2023-03-16T04:11:18.832Z,-6.00
2023-03-16T04:13:45.831Z,-5.63
2023-03-16T04:16:16.324Z,-5.28
2023-03-16T04:18:46.210Z,-5.75
2023-03-16T04:21:16.165Z,-6.69
2023-03-16T04:23:44.585Z,-6.41
2023-03-16T04:26:12.651Z,-7.29
2023-03-16T04:28:41.301Z,-7.22
2023-03-16T04:31:10.736Z,-7.92
2023-03-16T04:33:42.656Z,-6.69
2023-03-16T04:36:09.821Z,-7.36
2023-03-16T04:38:38.224Z,-7.97
2023-03-16T04:41:06.640Z,-8.40
2023-03-16T04:43:37.836Z,-7.66
2023-03-16T04:46:12.845Z,-8.24
2023-03-16T04:48:39.990Z,-7.78
2023-03-16T04:51:06.922Z,-8.57
2023-03-16T04:53:38.144Z,-7.94
2023-03-16T04:56:19.395Z,-8.09
2023-03-16T04:58:53.685Z,-7.21
2023-03-16T05:01:23.181Z,-6.35
2023-03-16T05:03:53.772Z,-6.87
2023-03-16T05:06:20.842Z,-7.37
2023-03-16T05:08:47.814Z,-8.37
2023-03-16T05:11:14.704Z,-6.20
2023-03-16T05:13:51.189Z,-12.25
2023-03-16T05:16:18.503Z,-12.29
2023-03-16T05:18:45.936Z,-6.80
2023-03-16T05:21:13.161Z,-7.42
2023-03-16T05:24:00.233Z,-7.60
2023-03-16T05:26:27.120Z,-7.36
2023-03-16T05:28:54.478Z,-6.59
2023-03-16T05:31:28.385Z,-5.86
2023-03-16T05:33:59.771Z,-6.80
2023-03-16T05:36:26.862Z,-6.92
2023-03-16T05:38:59.476Z,-5.70
2023-03-16T05:41:37.063Z,-6.51
2023-03-16T05:44:14.284Z,-6.56
2023-03-16T05:46:59.772Z,-6.33
2023-03-16T05:49:28.322Z,-6.32
2023-03-16T05:51:55.673Z,-6.75
2023-03-16T05:54:24.260Z,-5.83
2023-03-16T05:56:51.155Z,-5.68
2023-03-16T05:59:18.353Z,-5.09
2023-03-16T06:01:50.700Z,-5.07
2023-03-16T06:04:20.615Z,-5.78
2023-03-16T06:06:48.530Z,-6.19
2023-03-16T06:09:20.648Z,-6.59
2023-03-16T06:11:47.390Z,-7.18
2023-03-16T06:14:16.356Z,-6.30
2023-03-16T06:16:43.930Z,-6.27
2023-03-16T06:19:10.983Z,-6.27
2023-03-16T06:21:38.059Z,-4.88
2023-03-16T06:24:09.377Z,-6.72
2023-03-16T06:26:37.689Z,-6.71
2023-03-16T06:29:07.663Z,-6.32
2023-03-16T06:31:36.808Z,-6.31
2023-03-16T06:34:04.110Z,-5.16
2023-03-16T06:36:31.898Z,-5.23
2023-03-16T06:39:02.448Z,-4.96
2023-03-16T06:41:36.377Z,-6.62
2023-03-16T06:44:03.210Z,-6.73
2023-03-16T06:46:30.476Z,-6.50
2023-03-16T06:49:01.001Z,-6.19
2023-03-16T06:51:29.008Z,-4.61
2023-03-16T06:53:56.491Z,-6.78
2023-03-16T06:56:23.482Z,-6.99
2023-03-16T06:58:50.310Z,-5.77
2023-03-16T07:01:17.165Z,-7.03
2023-03-16T07:03:44.521Z,-6.23
2023-03-16T07:06:22.408Z,-6.12
2023-03-16T07:08:49.476Z,-6.15
2023-03-16T07:11:17.484Z,-7.28
2023-03-16T07:13:44.820Z,-5.62
2023-03-16T07:16:13.250Z,-6.52
2023-03-16T07:18:44.680Z,-7.06
2023-03-16T07:21:14.380Z,-6.45
2023-03-16T07:23:42.962Z,-6.24
2023-03-16T07:26:12.098Z,-7.18
2023-03-16T07:28:48.158Z,-7.45
2023-03-16T07:31:15.943Z,-6.77
2023-03-16T07:33:43.106Z,-5.61
2023-03-16T07:36:14.612Z,-6.39
2023-03-16T07:38:47.154Z,-6.58
2023-03-16T07:41:14.641Z,-4.90
2023-03-16T07:43:41.526Z,-6.38
2023-03-16T07:46:13.592Z,-6.14
2023-03-16T07:48:42.966Z,-5.83
2023-03-16T07:51:13.627Z,-6.57
2023-03-16T07:53:46.049Z,-5.35
2023-03-16T07:56:17.910Z,-5.71
2023-03-16T07:58:48.082Z,-3.97
2023-03-16T08:01:16.375Z,-5.45
2023-03-16T08:03:45.976Z,-5.06
2023-03-16T08:06:12.751Z,-4.31
2023-03-16T08:08:40.233Z,-5.71
2023-03-16T08:11:09.242Z,-5.55
2023-03-16T08:13:56.586Z,-5.12
2023-03-16T08:16:27.442Z,-4.29
2023-03-16T08:18:59.969Z,-5.38
2023-03-16T08:21:28.773Z,-4.88
2023-03-16T08:23:55.491Z,-6.19
2023-03-16T08:26:23.969Z,-5.75
2023-03-16T08:28:55.548Z,-6.04
2023-03-16T08:31:25.356Z,-6.25
2023-03-16T08:34:03.720Z,-6.33
2023-03-16T08:36:32.476Z,-5.61
2023-03-16T08:39:06.885Z,-5.49
2023-03-16T08:41:43.428Z,-6.63
2023-03-16T08:44:21.566Z,-5.86
2023-03-16T08:46:48.383Z,-4.64
2023-03-16T08:49:15.424Z,-8.16
2023-03-16T08:51:44.951Z,-5.02
2023-03-16T08:54:12.268Z,-3.11
2023-03-16T08:56:39.165Z,-1.82
2023-03-16T08:59:06.296Z,-2.51
2023-03-16T09:01:34.847Z,-3.45
2023-03-16T09:04:02.549Z,-3.01
2023-03-16T09:06:30.542Z,-3.13
2023-03-16T09:08:57.434Z,-4.36
2023-03-16T09:11:27.003Z,-5.73
2023-03-16T09:13:54.049Z,-4.61
2023-03-16T09:16:25.818Z,-5.51
2023-03-16T09:18:53.596Z,-4.02
2023-03-16T09:21:20.373Z,-5.19
2023-03-16T09:23:47.317Z,-3.78
2023-03-16T09:26:15.958Z,-5.00
2023-03-16T09:28:42.985Z,-3.29
2023-03-16T09:31:15.965Z,-1.00
2023-03-16T09:33:43.076Z,-1.42
2023-03-16T09:36:11.942Z,-1.10
2023-03-16T09:38:39.887Z,-3.65
2023-03-16T09:41:22.695Z,-1.07
2023-03-16T09:44:23.768Z,0.18
2023-03-16T09:46:53.145Z,-0.63
2023-03-16T09:49:22.089Z,-2.06
2023-03-16T09:52:00.743Z,-1.98
2023-03-16T09:54:54.001Z,-2.29
2023-03-16T09:57:31.263Z,-3.48
2023-03-16T10:00:11.032Z,-4.67
2023-03-16T10:03:10.231Z,-4.12
2023-03-16T10:05:39.662Z,-1.57
2023-03-16T10:08:29.221Z,-2.18
2023-03-16T10:10:58.959Z,-3.27
2023-03-16T10:13:42.426Z,1.03
2023-03-16T10:16:16.427Z,2.23
2023-03-16T10:18:47.464Z,-1.08
2023-03-16T10:21:18.363Z,-0.42
2023-03-16T10:23:48.696Z,-0.39
2023-03-16T10:26:26.382Z,-2.10
2023-03-16T10:28:55.201Z,-1.10
2023-03-16T10:31:24.492Z,-0.13
2023-03-16T10:33:58.655Z,0.52
2023-03-16T10:36:35.448Z,-2.13
2023-03-16T10:39:06.827Z,-1.74
2023-03-16T10:41:37.279Z,-0.66
2023-03-16T10:44:18.390Z,-0.13
2023-03-16T10:46:49.061Z,-2.79
2023-03-16T10:49:29.301Z,-2.41
2023-03-16T10:52:00.604Z,-0.50
2023-03-16T10:54:33.004Z,-1.82
2023-03-16T10:57:00.649Z,0.06
2023-03-16T10:59:38.282Z,-2.66
2023-03-16T11:02:22.727Z,2.77
2023-03-16T11:04:50.621Z,2.70
2023-03-16T11:07:24.212Z,0.34
2023-03-16T11:09:56.086Z,-0.00
2023-03-16T11:12:27.506Z,1.30
2023-03-16T11:14:54.707Z,0.08
2023-03-16T11:17:43.341Z,0.35
2023-03-16T11:20:18.206Z,2.10
2023-03-16T11:22:48.389Z,2.66
2023-03-16T11:25:26.373Z,3.43
2023-03-16T11:28:12.079Z,5.13
2023-03-16T11:30:54.296Z,3.93
2023-03-16T11:33:21.778Z,-0.42
2023-03-16T11:36:30.132Z,3.56
2023-03-16T11:39:09.750Z,5.17
2023-03-16T11:41:48.555Z,4.22
2023-03-16T11:44:19.364Z,5.03
2023-03-16T11:47:06.168Z,2.32
2023-03-16T11:49:45.867Z,3.03
2023-03-16T11:52:34.475Z,3.63
2023-03-16T11:55:19.524Z,4.38
2023-03-16T11:57:58.336Z,1.21
2023-03-16T12:00:32.621Z,3.70
2023-03-16T12:03:22.888Z,3.44
2023-03-16T12:06:02.113Z,4.55
2023-03-16T12:09:28.836Z,4.95
2023-03-16T12:12:17.886Z,4.22
2023-03-16T12:14:54.008Z,2.75
2023-03-16T12:17:26.062Z,4.28
2023-03-16T12:20:05.776Z,2.27
2023-03-16T12:22:42.415Z,4.35
2023-03-16T12:25:36.689Z,4.14
2023-03-16T12:28:12.024Z,5.59
2023-03-16T12:30:44.649Z,4.22
2023-03-16T12:33:23.724Z,3.26
2023-03-16T12:36:18.861Z,3.90
2023-03-16T12:38:57.108Z,6.60
2023-03-16T12:41:51.614Z,4.28
2023-03-16T12:44:31.494Z,5.40
2023-03-16T12:47:15.348Z,6.29
2023-03-16T12:49:43.188Z,7.52
2023-03-16T12:52:15.321Z,6.62
2023-03-16T12:54:53.960Z,5.60
2023-03-16T12:57:25.494Z,7.22
2023-03-16T12:59:58.500Z,5.36
2023-03-16T13:02:37.696Z,6.14
2023-03-16T13:05:13.147Z,5.92
2023-03-16T13:07:52.685Z,7.86
2023-03-16T13:10:21.098Z,5.26
2023-03-16T13:12:51.607Z,8.56
2023-03-16T13:15:22.341Z,5.21
2023-03-16T13:18:09.983Z,5.91
2023-03-16T13:20:51.523Z,5.89
2023-03-16T13:23:24.669Z,6.25
2023-03-16T13:26:25.798Z,5.44
2023-03-16T13:28:55.072Z,5.03
2023-03-16T13:31:24.843Z,4.50
2023-03-16T13:34:00.443Z,4.24
2023-03-16T13:36:30.094Z,4.83
2023-03-16T13:39:06.748Z,5.80
2023-03-16T13:41:33.608Z,5.44
2023-03-16T13:44:00.836Z,4.69
2023-03-16T13:46:30.209Z,4.08
2023-03-16T13:49:03.849Z,6.57
2023-03-16T13:51:36.269Z,8.26
2023-03-16T13:54:21.738Z,6.29
2023-03-16T13:56:49.690Z,4.67
2023-03-16T13:59:18.840Z,4.01
2023-03-16T14:01:49.625Z,5.90
2023-03-16T14:04:20.405Z,5.99
2023-03-16T14:07:00.248Z,4.80
2023-03-16T14:09:35.102Z,5.54
2023-03-16T14:12:02.583Z,5.89
2023-03-16T14:14:39.322Z,5.12
2023-03-16T14:17:15.070Z,5.83
2023-03-16T14:19:50.619Z,3.17
2023-03-16T14:22:20.752Z,6.24
2023-03-16T14:24:54.660Z,3.10
2023-03-16T14:27:39.584Z,2.81
2023-03-16T14:30:26.192Z,5.05
2023-03-16T14:33:00.611Z,4.67
2023-03-16T14:35:32.271Z,5.15
2023-03-16T14:38:37.296Z,4.21
2023-03-16T14:41:08.855Z,4.46
2023-03-16T14:43:40.314Z,5.12
2023-03-16T14:46:08.619Z,3.83
2023-03-16T14:48:35.900Z,5.17
2023-03-16T14:51:05.192Z,3.87
2023-03-16T14:53:31.954Z,5.63
2023-03-16T14:55:59.596Z,2.08
2023-03-16T14:58:26.630Z,5.42
2023-03-16T15:00:54.780Z,4.48
2023-03-16T15:03:30.405Z,2.13
2023-03-16T15:05:57.268Z,3.03
2023-03-16T15:08:27.633Z,3.38
2023-03-16T15:11:00.994Z,2.59
2023-03-16T15:13:47.123Z,5.08
2023-03-16T15:16:14.546Z,4.48
2023-03-16T15:18:42.727Z,5.24
2023-03-16T15:21:13.186Z,4.06
2023-03-16T15:23:42.877Z,5.89
2023-03-16T15:26:13.346Z,4.20
2023-03-16T15:28:41.063Z,3.63
2023-03-16T15:31:08.128Z,4.16
2023-03-16T15:33:36.250Z,4.12
2023-03-16T15:36:13.901Z,5.45
2023-03-16T15:38:46.187Z,3.65
2023-03-16T15:41:13.770Z,3.58
2023-03-16T15:43:40.654Z,3.42
2023-03-16T15:46:07.480Z,3.02
2023-03-16T15:48:35.499Z,3.65
2023-03-16T15:51:05.209Z,3.61
2023-03-16T15:53:36.697Z,3.25
2023-03-16T15:56:07.708Z,2.60
2023-03-16T15:58:36.500Z,2.44
2023-03-16T16:01:07.694Z,2.13
2023-03-16T16:03:35.280Z,2.82
2023-03-16T16:06:02.407Z,1.59
2023-03-16T16:08:29.499Z,1.26
2023-03-16T16:10:56.689Z,2.02
2023-03-16T16:13:37.410Z,1.60
2023-03-16T16:16:14.414Z,2.34
2023-03-16T16:18:41.627Z,0.98
2023-03-16T16:21:17.878Z,1.31
2023-03-16T16:23:45.481Z,1.58
2023-03-16T16:26:55.264Z,1.54
2023-03-16T16:29:30.743Z,-0.01
2023-03-16T16:31:57.613Z,0.30
2023-03-16T16:34:25.655Z,1.20
2023-03-16T16:36:56.615Z,0.94
2023-03-16T16:39:24.148Z,1.32
2023-03-16T16:41:54.796Z,0.51
2023-03-16T16:44:28.815Z,1.03
2023-03-16T16:46:56.632Z,0.78
2023-03-16T16:49:26.250Z,1.62
2023-03-16T16:51:53.336Z,1.56
2023-03-16T16:54:31.147Z,1.11
2023-03-16T16:56:59.871Z,3.21
2023-03-16T16:59:32.170Z,2.58
2023-03-16T17:02:13.481Z,2.99
2023-03-16T17:04:40.595Z,3.07
2023-03-16T17:07:11.628Z,2.91
2023-03-16T17:09:39.054Z,1.89
2023-03-16T17:12:22.344Z,2.42
2023-03-16T17:14:53.145Z,1.40
2023-03-16T17:17:21.778Z,1.97
2023-03-16T17:19:48.640Z,1.99
2023-03-16T17:22:28.298Z,2.01
2023-03-16T17:24:55.661Z,2.99
2023-03-16T17:27:29.556Z,2.75
2023-03-16T17:29:57.750Z,1.58
2023-03-16T17:32:25.550Z,2.31
2023-03-16T17:34:53.166Z,1.91
2023-03-16T17:37:22.863Z,2.87
2023-03-16T17:39:49.832Z,3.04
2023-03-16T17:42:18.825Z,2.74
2023-03-16T17:44:52.687Z,1.25
2023-03-16T17:47:26.605Z,0.43
2023-03-16T17:49:54.344Z,-0.04
2023-03-16T17:52:26.776Z,-1.08
2023-03-16T17:54:54.516Z,0.43
2023-03-16T17:57:27.546Z,-0.38
2023-03-16T17:59:54.677Z,-1.25
2023-03-16T18:02:55.103Z,-0.35
2023-03-16T18:05:28.756Z,-0.27
2023-03-16T18:07:59.172Z,-0.36
2023-03-16T18:10:32.779Z,-0.40
2023-03-16T18:13:03.672Z,-0.61
2023-03-16T18:15:33.782Z,-0.76
2023-03-16T18:18:01.312Z,-1.30
2023-03-16T18:20:33.813Z,-1.58
2023-03-16T18:23:09.369Z,-0.71
2023-03-16T18:25:42.219Z,-0.87
2023-03-16T18:28:10.811Z,-0.37
2023-03-16T18:30:39.956Z,-0.37
2023-03-16T18:33:16.850Z,-0.55
2023-03-16T18:35:44.583Z,-1.43
2023-03-16T18:38:25.482Z,-1.42
2023-03-16T18:40:53.814Z,-1.35
2023-03-16T18:43:21.692Z,-1.71
2023-03-16T18:45:49.458Z,-0.84
2023-03-16T18:48:32.630Z,-1.41
2023-03-16T18:51:00.162Z,-1.74
2023-03-16T18:53:29.105Z,-2.37
2023-03-16T18:55:57.517Z,-1.62
2023-03-16T18:58:24.944Z,-1.57
2023-03-16T19:00:57.577Z,-2.49
2023-03-16T19:03:27.467Z,-2.47
2023-03-16T19:05:57.046Z,-2.32
2023-03-16T19:08:26.457Z,-2.01
2023-03-16T19:11:00.021Z,-1.23
2023-03-16T19:13:27.815Z,-1.36
2023-03-16T19:15:56.264Z,-2.30
2023-03-16T19:18:26.205Z,-2.59
2023-03-16T19:20:55.305Z,-2.48
2023-03-16T19:23:31.232Z,-2.08
2023-03-16T19:25:58.607Z,-2.10
2023-03-16T19:28:34.137Z,-1.83
2023-03-16T19:31:14.393Z,-1.49
2023-03-16T19:33:41.782Z,-1.82
2023-03-16T19:36:32.134Z,-2.28
2023-03-16T19:38:59.509Z,-2.09
2023-03-16T19:41:28.949Z,-2.12
2023-03-16T19:43:58.127Z,-2.98
2023-03-16T19:46:29.571Z,-2.84
2023-03-16T19:48:58.864Z,-2.55
2023-03-16T19:51:29.157Z,-2.58
2023-03-16T19:53:56.526Z,-2.14
2023-03-16T19:56:26.814Z,-2.47
2023-03-16T19:58:55.768Z,-2.37
2023-03-16T20:01:32.550Z,-2.75
2023-03-16T20:04:00.692Z,-3.23
2023-03-16T20:06:28.438Z,-2.44
2023-03-16T20:08:56.586Z,-2.22
2023-03-16T20:11:29.152Z,-3.01
2023-03-16T20:13:57.286Z,-2.83
2023-03-16T20:16:28.507Z,-3.91
2023-03-16T20:18:58.106Z,-3.63
2023-03-16T20:21:25.183Z,-2.79
2023-03-16T20:23:54.269Z,-3.01
2023-03-16T20:26:32.237Z,-3.32
2023-03-16T20:29:01.015Z,-3.44
2023-03-16T20:31:34.446Z,-3.56
2023-03-16T20:34:02.291Z,-4.21
2023-03-16T20:36:29.255Z,-4.13
2023-03-16T20:38:56.098Z,-3.27
2023-03-16T20:41:29.595Z,-3.97
2023-03-16T20:43:59.531Z,-3.99
2023-03-16T20:46:30.991Z,-2.69
2023-03-16T20:49:00.672Z,-3.44
2023-03-16T20:51:28.739Z,-3.66
2023-03-16T20:53:55.568Z,-4.67
2023-03-16T20:56:25.899Z,-4.17
2023-03-16T20:58:56.219Z,-4.01
2023-03-16T21:01:24.990Z,-3.65
2023-03-16T21:03:56.070Z,-5.20
2023-03-16T21:06:24.948Z,-5.24
2023-03-16T21:08:54.031Z,-5.44
2023-03-16T21:11:27.648Z,-7.19
2023-03-16T21:13:56.310Z,-4.75
2023-03-16T21:16:23.995Z,-4.43
2023-03-16T21:18:51.347Z,-5.39
2023-03-16T21:21:19.943Z,-5.60
2023-03-16T21:23:47.621Z,-4.80
2023-03-16T21:26:20.405Z,-4.72
2023-03-16T21:29:06.528Z,-4.97
2023-03-16T21:31:33.352Z,-4.35
2023-03-16T21:34:00.845Z,-5.40
2023-03-16T21:36:27.582Z,-5.25
2023-03-16T21:38:55.929Z,-5.49
2023-03-16T21:41:24.229Z,-5.66
2023-03-16T21:43:51.741Z,-6.61
2023-03-16T21:46:22.656Z,-6.84
2023-03-16T21:48:55.936Z,-5.24
2023-03-16T21:51:28.481Z,-6.09
2023-03-16T21:53:56.316Z,-5.79
2023-03-16T21:56:26.234Z,-5.31
2023-03-16T21:58:55.845Z,-5.01
2023-03-16T22:01:29.329Z,-5.97
2023-03-16T22:04:01.247Z,-5.22
2023-03-16T22:06:28.917Z,-5.80
2023-03-16T22:08:57.814Z,-7.21
2023-03-16T22:11:28.175Z,-6.50
2023-03-16T22:13:57.394Z,-6.31
2023-03-16T22:16:32.684Z,-6.68
2023-03-16T22:18:59.729Z,-7.08
2023-03-16T22:21:34.507Z,-7.36
2023-03-16T22:24:05.337Z,-6.64
2023-03-16T22:26:32.624Z,-9.02
2023-03-16T22:29:00.979Z,-6.94
2023-03-16T22:31:37.071Z,-6.81
2023-03-16T22:34:04.891Z,-6.90
2023-03-16T22:36:33.399Z,-7.37
2023-03-16T22:39:03.698Z,-6.40
2023-03-16T22:41:31.166Z,-6.90
2023-03-16T22:43:58.396Z,-6.07
2023-03-16T22:46:28.402Z,-7.14
2023-03-16T22:48:57.144Z,-7.11
2023-03-16T22:51:31.608Z,-6.81
2023-03-16T22:54:12.606Z,-6.42
2023-03-16T22:56:41.846Z,-6.77
2023-03-16T22:59:13.588Z,-7.69
2023-03-16T23:01:44.004Z,-7.78
2023-03-16T23:04:23.419Z,-6.79
2023-03-16T23:06:53.208Z,-7.11
2023-03-16T23:09:21.988Z,-7.09
2023-03-16T23:11:53.945Z,-6.93
2023-03-16T23:14:24.923Z,-7.21
2023-03-16T23:16:52.768Z,-6.64
2023-03-16T23:19:25.426Z,-7.02
2023-03-16T23:21:56.013Z,-7.21
2023-03-16T23:24:23.354Z,-6.79
2023-03-16T23:26:51.865Z,-5.62
2023-03-16T23:29:19.183Z,-5.76
2023-03-16T23:31:46.236Z,-6.92
2023-03-16T23:34:22.704Z,-6.40
2023-03-16T23:36:50.170Z,-6.86
2023-03-16T23:39:17.421Z,-6.84
2023-03-16T23:41:48.998Z,-6.24
2023-03-16T23:44:18.511Z,-6.27
2023-03-16T23:46:45.552Z,-7.21
2023-03-16T23:49:20.122Z,-7.01
2023-03-16T23:51:46.875Z,-5.50
2023-03-16T23:54:19.155Z,-6.22
2023-03-16T23:56:46.350Z,-6.56
2023-03-16T23:59:13.151Z,-7.31
